Time;durP1;ratioP1;P1;durP2;ratioP2;P2;SDS_P1;SDS_P2;PMS_P1;PMS_P2;Temp;Humidity;BMP_temperature;BMP_pressure;BME280_temperature;BME280_humidity;BME280_pressure;Samples;Min_cycle;Max_cycle;Signal;HPM_P1;HPM_P2
2022/12/18 00:01:05;;;;;;;5.95;2.95;;;2.30;99.90;;;;;;5026368;28;20080;-69
2022/12/18 00:03:33;;;;;;;7.03;3.20;;;2.30;99.90;;;;;;5028579;28;20033;-69
2022/12/18 00:05:59;;;;;;;6.28;3.03;;;2.10;99.90;;;;;;5027526;28;20033;-69
2022/12/18 00:08:24;;;;;;;6.25;3.83;;;2.10;99.90;;;;;;5031538;28;23633;-69
2022/12/18 00:10:50;;;;;;;6.38;3.58;;;2.00;99.90;;;;;;5039388;28;20078;-69
2022/12/18 00:13:15;;;;;;;5.88;2.88;;;2.00;99.90;;;;;;5030143;28;20041;-69
2022/12/18 00:15:41;;;;;;;5.70;3.10;;;1.90;99.90;;;;;;5029371;28;20045;-69
2022/12/18 00:18:07;;;;;;;5.13;3.08;;;1.90;99.90;;;;;;5031240;28;20487;-70
2022/12/18 00:20:37;;;;;;;6.72;2.92;;;2.00;99.90;;;;;;5031125;28;20033;-69
2022/12/18 00:23:04;;;;;;;5.97;3.08;;;2.50;99.90;;;;;;5034905;28;20025;-71
2022/12/18 00:25:31;;;;;;;6.63;3.25;;;4.00;99.90;;;;;;5035655;28;20029;-70
2022/12/18 00:27:57;;;;;;;6.30;3.15;;;2.80;99.90;;;;;;5032858;28;20384;-69
2022/12/18 00:30:23;;;;;;;5.15;2.78;;;2.40;99.90;;;;;;5032296;28;20044;-70
2022/12/18 00:32:48;;;;;;;5.65;3.28;;;2.30;99.90;;;;;;5033239;28;20042;-70
2022/12/18 00:35:14;;;;;;;6.57;3.25;;;2.30;99.90;;;;;;5013940;28;20038;-70
2022/12/18 00:37:40;;;;;;;6.60;3.55;;;2.10;99.90;;;;;;5040602;28;20022;-70
2022/12/18 00:40:06;;;;;;;7.68;3.63;;;2.20;99.90;;;;;;5030635;28;20057;-70
2022/12/18 00:45:16;;;;;;;6.80;3.33;;;2.10;99.90;;;;;;5032907;28;20410;-69
2022/12/18 00:47:41;;;;;;;8.15;3.80;;;2.00;99.90;;;;;;5037681;28;20053;-70
2022/12/18 00:50:08;;;;;;;4.82;3.08;;;2.00;99.90;;;;;;5034468;28;20039;-70
2022/12/18 00:52:34;;;;;;;5.88;2.63;;;1.90;99.90;;;;;;5030483;28;20040;-70
2022/12/18 00:54:59;;;;;;;5.22;3.13;;;1.80;99.90;;;;;;5033534;28;20472;-70
2022/12/18 00:57:25;;;;;;;5.40;2.88;;;2.10;99.90;;;;;;5035014;28;20530;-70
2022/12/18 00:59:50;;;;;;;7.57;3.33;;;2.20;99.90;;;;;;5036864;28;20025;-70
2022/12/18 01:02:16;;;;;;;6.50;3.40;;;2.30;99.90;;;;;;5046631;28;20064;-70
2022/12/18 01:04:42;;;;;;;3.92;2.60;;;2.10;99.90;;;;;;5033540;28;20437;-70
2022/12/18 01:07:07;;;;;;;7.05;2.97;;;1.80;99.90;;;;;;5036392;28;20033;-70
2022/12/18 01:09:34;;;;;;;6.38;3.17;;;1.80;99.90;;;;;;5032886;28;20041;-70
2022/12/18 01:11:59;;;;;;;4.03;2.55;;;1.80;99.90;;;;;;5031011;28;20036;-70
2022/12/18 01:14:25;;;;;;;6.65;2.83;;;1.80;99.90;;;;;;5038335;28;20038;-70
2022/12/18 01:16:51;;;;;;;6.25;3.28;;;1.80;99.90;;;;;;5034794;28;20033;-70
2022/12/18 01:19:16;;;;;;;5.80;3.00;;;1.90;99.90;;;;;;5033305;28;20468;-70
2022/12/18 01:21:42;;;;;;;4.85;2.38;;;1.90;99.90;;;;;;5038895;28;20036;-70
2022/12/18 01:24:10;;;;;;;6.32;3.03;;;1.80;99.90;;;;;;5030576;28;20060;-69
2022/12/18 01:26:35;;;;;;;8.00;3.40;;;1.90;99.90;;;;;;5038401;28;20120;-70
2022/12/18 01:29:01;;;;;;;6.13;2.95;;;1.80;99.90;;;;;;5033860;28;20136;-70
2022/12/18 01:31:29;;;;;;;6.22;3.33;;;1.90;99.90;;;;;;5042433;28;20108;-70
2022/12/18 01:33:56;;;;;;;5.43;2.85;;;1.80;99.90;;;;;;5042243;28;20037;-70
2022/12/18 01:36:25;;;;;;;6.07;3.35;;;1.70;99.90;;;;;;5043431;28;20051;-70
2022/12/18 01:38:51;;;;;;;5.50;3.08;;;2.00;99.90;;;;;;5043344;28;20037;-70
2022/12/18 01:41:20;;;;;;;4.45;2.50;;;1.80;99.90;;;;;;5037780;28;20080;-70
2022/12/18 01:43:48;;;;;;;4.65;2.83;;;1.70;99.90;;;;;;5032977;28;20036;-70
2022/12/18 01:46:15;;;;;;;5.57;3.25;;;1.60;99.90;;;;;;5035356;28;20483;-70
2022/12/18 01:48:42;;;;;;;5.43;2.92;;;1.70;99.90;;;;;;5029889;28;20099;-70
2022/12/18 01:51:09;;;;;;;3.92;2.33;;;1.50;99.90;;;;;;5029784;28;20084;-70
2022/12/18 01:53:37;;;;;;;5.80;2.80;;;1.70;99.90;;;;;;5031254;28;20033;-70
2022/12/18 01:56:03;;;;;;;6.88;3.35;;;1.70;99.90;;;;;;5049448;28;20429;-70
2022/12/18 01:58:49;;;;;;;6.05;2.30;;;1.80;99.90;;;;;;5030012;28;20033;-70
2022/12/18 02:01:15;;;;;;;5.50;2.90;;;1.80;99.90;;;;;;5024583;28;20047;-70
2022/12/18 02:03:42;;;;;;;6.00;3.28;;;1.80;99.90;;;;;;5035382;28;20033;-70
2022/12/18 02:06:14;;;;;;;4.80;2.40;;;1.80;99.90;;;;;;5049508;28;20473;-70
2022/12/18 02:09:23;;;;;;;4.35;2.85;;;1.70;99.90;;;;;;5039829;28;20041;-70
2022/12/18 02:12:20;;;;;;;7.05;2.53;;;1.90;99.90;;;;;;5036955;28;20037;-70
2022/12/18 02:15:05;;;;;;;5.65;2.35;;;1.70;99.90;;;;;;5035862;28;20080;-70
2022/12/18 02:17:39;;;;;;;5.78;2.75;;;1.70;99.90;;;;;;5041673;28;20021;-70
2022/12/18 02:20:05;;;;;;;;;;;1.70;99.90;;;;;;5031682;28;20056;-70
2022/12/18 02:22:39;;;;;;;8.05;2.40;;;1.60;99.90;;;;;;5036711;28;20006;-70
2022/12/18 02:25:43;;;;;;;7.07;2.90;;;1.80;99.90;;;;;;5035365;28;20026;-70
2022/12/18 02:28:12;;;;;;;5.65;2.70;;;1.70;99.90;;;;;;5033566;28;20488;-71
2022/12/18 02:30:41;;;;;;;6.25;3.45;;;1.70;99.90;;;;;;5030041;28;20036;-70
2022/12/18 02:33:08;;;;;;;5.25;2.80;;;1.60;99.90;;;;;;5039708;28;20033;-70
2022/12/18 02:35:36;;;;;;;7.32;2.75;;;1.30;99.90;;;;;;5030268;28;20434;-70
2022/12/18 02:38:03;;;;;;;5.55;2.38;;;1.20;99.90;;;;;;5043088;28;20028;-70
2022/12/18 02:40:30;;;;;;;6.72;3.08;;;1.30;99.90;;;;;;5041206;28;20063;-70
2022/12/18 02:43:02;;;;;;;5.90;2.83;;;1.40;99.90;;;;;;5031726;28;20538;-70
2022/12/18 02:45:27;;;;;;;5.32;2.75;;;1.30;99.90;;;;;;5037483;28;20067;-70
2022/12/18 02:47:53;;;;;;;6.93;3.67;;;1.10;99.90;;;;;;5035899;28;20099;-70
2022/12/18 02:50:26;;;;;;;5.57;2.92;;;1.10;99.90;;;;;;5030150;28;20033;-70
2022/12/18 02:53:07;;;;;;;5.93;2.50;;;1.30;99.90;;;;;;5035468;28;20464;-70
2022/12/18 02:55:36;;;;;;;5.63;2.67;;;1.20;99.90;;;;;;5042022;28;20112;-70
2022/12/18 02:58:16;;;;;;;5.13;2.42;;;1.30;99.90;;;;;;5041281;28;20037;-70
2022/12/18 03:01:22;;;;;;;5.53;2.80;;;1.60;99.90;;;;;;5041144;28;20025;-70
2022/12/18 03:04:36;;;;;;;4.93;2.63;;;1.30;99.90;;;;;;5006771;28;20059;-70
2022/12/18 03:07:08;;;;;;;4.78;2.72;;;1.30;99.90;;;;;;5034569;28;20060;-70
2022/12/18 03:09:43;;;;;;;5.85;2.75;;;1.30;99.90;;;;;;5038427;28;20048;-70
2022/12/18 03:12:25;;;;;;;6.20;2.60;;;1.40;99.90;;;;;;5030233;28;20083;-70
2022/12/18 03:15:02;;;;;;;5.93;2.92;;;1.30;99.90;;;;;;5029848;28;20112;-70
2022/12/18 03:17:32;;;;;;;6.10;2.85;;;1.40;99.90;;;;;;5028338;28;20030;-70
2022/12/18 03:20:05;;;;;;;5.80;2.55;;;1.40;99.90;;;;;;5028577;28;20033;-70
2022/12/18 03:22:33;;;;;;;4.57;2.85;;;1.30;99.90;;;;;;5042926;28;20104;-70
2022/12/18 03:25:03;;;;;;;5.75;2.40;;;1.30;99.90;;;;;;5044881;28;20028;-70
2022/12/18 03:27:31;;;;;;;4.82;2.15;;;1.40;99.90;;;;;;5040173;28;20039;-70
2022/12/18 03:30:07;;;;;;;5.18;2.78;;;1.30;99.90;;;;;;5040051;28;20040;-70
2022/12/18 03:33:03;;;;;;;5.60;2.83;;;1.30;99.90;;;;;;5041028;28;20368;-70
2022/12/18 03:35:34;;;;;;;5.22;2.65;;;1.30;99.90;;;;;;5002561;28;20118;-70
2022/12/18 03:38:00;;;;;;;4.45;2.40;;;1.20;99.90;;;;;;5037076;28;20028;-70
2022/12/18 03:40:35;;;;;;;5.75;3.00;;;1.30;99.90;;;;;;5035138;28;20026;-70
2022/12/18 03:43:10;;;;;;;4.80;2.30;;;1.30;99.90;;;;;;5038411;28;20061;-70
2022/12/18 03:45:42;;;;;;;5.63;3.10;;;1.40;99.90;;;;;;5028773;28;20035;-70
2022/12/18 03:48:16;;;;;;;4.13;2.10;;;1.10;99.90;;;;;;5043510;28;20072;-70
2022/12/18 03:50:42;;;;;;;3.50;2.10;;;1.10;99.90;;;;;;5039340;28;20387;-70
2022/12/18 03:53:22;;;;;;;5.15;2.70;;;1.00;99.90;;;;;;5033356;28;20033;-70
2022/12/18 03:55:49;;;;;;;3.65;1.95;;;1.00;99.90;;;;;;5040147;28;20029;-70
2022/12/18 03:58:18;;;;;;;7.53;2.83;;;1.10;99.90;;;;;;5033432;28;20127;-70
2022/12/18 04:00:44;;;;;;;6.20;2.70;;;1.10;99.90;;;;;;5034522;28;20032;-69
2022/12/18 04:03:11;;;;;;;6.70;2.92;;;1.10;99.90;;;;;;5039518;28;20478;-68
2022/12/18 04:05:38;;;;;;;7.82;3.15;;;1.10;99.90;;;;;;5040642;28;20043;-68
2022/12/18 04:08:04;;;;;;;5.53;2.58;;;1.00;99.90;;;;;;5033577;28;20471;-68
2022/12/18 04:10:30;;;;;;;4.38;2.45;;;1.20;99.90;;;;;;5026134;28;20039;-68
2022/12/18 04:12:57;;;;;;;5.03;2.53;;;1.20;99.90;;;;;;5033759;28;20104;-68
2022/12/18 04:15:23;;;;;;;6.63;2.30;;;1.20;99.90;;;;;;5031053;28;20029;-69
2022/12/18 04:17:49;;;;;;;5.88;2.70;;;1.10;99.90;;;;;;5025414;28;20031;-69
2022/12/18 04:20:16;;;;;;;6.57;3.65;;;1.10;99.90;;;;;;5035258;28;20028;-68
2022/12/18 04:22:41;;;;;;;6.35;2.67;;;1.00;99.90;;;;;;5026857;28;20100;-68
2022/12/18 04:25:08;;;;;;;5.28;2.28;;;1.10;99.90;;;;;;5034987;28;20136;-68
2022/12/18 04:27:33;;;;;;;5.90;2.47;;;1.10;99.90;;;;;;5031581;28;20422;-68
2022/12/18 04:29:59;;;;;;;4.35;1.88;;;1.10;99.90;;;;;;5038224;28;20183;-68
2022/12/18 04:32:25;;;;;;;5.00;2.40;;;1.00;99.90;;;;;;5034533;28;20065;-69
2022/12/18 04:34:50;;;;;;;5.57;2.28;;;0.90;99.90;;;;;;5038739;28;20033;-69
2022/12/18 04:37:16;;;;;;;6.18;2.38;;;0.90;99.90;;;;;;5037339;28;20041;-68
2022/12/18 04:39:42;;;;;;;4.53;2.42;;;0.90;99.90;;;;;;5042170;28;20102;-68
2022/12/18 04:42:07;;;;;;;4.80;2.33;;;0.90;99.90;;;;;;5034080;28;20033;-68
2022/12/18 04:44:34;;;;;;;5.65;2.80;;;0.90;99.90;;;;;;5038544;28;20033;-68
2022/12/18 04:46:59;;;;;;;3.65;2.05;;;0.80;99.90;;;;;;5040040;28;20060;-69
2022/12/18 04:49:25;;;;;;;3.45;1.77;;;0.70;99.90;;;;;;5031491;28;20034;-68
2022/12/18 04:51:51;;;;;;;3.88;1.73;;;0.80;99.90;;;;;;5037565;28;20477;-68
2022/12/18 04:54:19;;;;;;;4.03;1.92;;;0.60;99.90;;;;;;5027630;28;20039;-68
2022/12/18 04:56:45;;;;;;;5.30;2.42;;;0.70;99.90;;;;;;5026909;28;20099;-68
2022/12/18 04:59:11;;;;;;;4.72;2.47;;;0.50;99.90;;;;;;5027670;28;20037;-68
2022/12/18 05:01:36;;;;;;;6.03;2.63;;;0.50;99.90;;;;;;5031799;28;20380;-68
2022/12/18 05:04:03;;;;;;;4.20;1.83;;;0.70;99.90;;;;;;5022605;28;20032;-67
2022/12/18 05:06:29;;;;;;;4.35;2.20;;;0.70;99.90;;;;;;5028525;28;20480;-68
2022/12/18 05:08:54;;;;;;;5.38;2.50;;;0.80;99.90;;;;;;5025039;28;20041;-68
2022/12/18 05:11:20;;;;;;;4.35;2.20;;;0.70;99.90;;;;;;5030841;28;20041;-68
2022/12/18 05:13:46;;;;;;;4.03;2.08;;;0.70;99.90;;;;;;5038930;28;20072;-68
2022/12/18 05:16:12;;;;;;;5.20;2.55;;;0.80;99.90;;;;;;5034429;28;20037;-68
2022/12/18 05:18:38;;;;;;;4.43;2.80;;;0.90;99.90;;;;;;5030771;28;20029;-69
2022/12/18 05:21:04;;;;;;;3.58;1.85;;;0.80;99.90;;;;;;5032175;28;20458;-67
2022/12/18 05:23:30;;;;;;;4.97;2.13;;;0.80;99.90;;;;;;5030350;28;20037;-67
2022/12/18 05:26:00;;;;;;;4.68;2.47;;;0.70;99.90;;;;;;5036931;28;20529;-68
2022/12/18 05:28:29;;;;;;;3.97;1.98;;;0.70;99.90;;;;;;5033554;28;20106;-68
2022/12/18 05:30:57;;;;;;;4.30;2.40;;;0.80;99.90;;;;;;5041540;28;21003;-68
2022/12/18 05:33:24;;;;;;;4.57;2.13;;;0.90;99.90;;;;;;5032979;28;20039;-68
2022/12/18 05:35:58;;;;;;;5.93;2.30;;;0.90;99.90;;;;;;5022597;28;20040;-68
2022/12/18 05:38:26;;;;;;;4.72;1.95;;;0.90;99.90;;;;;;5036232;28;20044;-68
2022/12/18 05:40:53;;;;;;;4.82;2.17;;;1.10;99.90;;;;;;5030824;28;20033;-68
2022/12/18 05:43:21;;;;;;;5.07;2.50;;;1.00;99.90;;;;;;5030336;28;20059;-68
2022/12/18 05:45:47;;;;;;;4.10;2.03;;;1.00;99.90;;;;;;5022617;28;20673;-68
2022/12/18 05:48:13;;;;;;;4.38;1.83;;;0.70;99.90;;;;;;5021280;28;20053;-68
2022/12/18 05:50:41;;;;;;;4.18;1.92;;;0.70;99.90;;;;;;5032074;28;20029;-68
2022/12/18 05:53:07;;;;;;;5.57;2.75;;;0.70;99.90;;;;;;5032656;28;20087;-67
2022/12/18 05:55:34;;;;;;;3.22;1.55;;;0.60;99.90;;;;;;5025429;28;20112;-67
2022/12/18 05:58:00;;;;;;;3.78;1.80;;;0.80;99.90;;;;;;5024716;28;20029;-68
2022/12/18 06:00:26;;;;;;;4.50;2.35;;;0.80;99.90;;;;;;5029402;28;20705;-68
2022/12/18 06:02:52;;;;;;;5.25;2.17;;;0.70;99.90;;;;;;5035170;28;20037;-68
2022/12/18 06:05:17;;;;;;;4.45;2.63;;;0.70;99.90;;;;;;5024062;28;20025;-68
2022/12/18 06:07:43;;;;;;;5.07;1.92;;;0.80;99.90;;;;;;5029538;28;20051;-68
2022/12/18 06:10:08;;;;;;;4.63;2.47;;;0.60;99.90;;;;;;5036193;28;20128;-68
2022/12/18 06:12:34;;;;;;;4.20;2.63;;;0.60;99.90;;;;;;5033404;28;20108;-68
2022/12/18 06:15:00;;;;;;;6.85;2.50;;;0.70;99.90;;;;;;5035197;28;20052;-68
2022/12/18 06:17:30;;;;;;;3.72;1.70;;;0.60;99.90;;;;;;5030921;28;20035;-68
2022/12/18 06:19:56;;;;;;;4.32;2.08;;;0.70;99.90;;;;;;5021160;28;20029;-67
2022/12/18 06:22:21;;;;;;;3.83;2.03;;;0.80;99.90;;;;;;5029261;28;20094;-67
2022/12/18 06:24:47;;;;;;;3.80;1.80;;;0.80;99.90;;;;;;5039698;28;20098;-68
2022/12/18 06:27:13;;;;;;;4.22;2.22;;;0.50;99.90;;;;;;5026188;28;20033;-68
2022/12/18 06:29:38;;;;;;;4.70;2.03;;;0.50;99.90;;;;;;5032666;28;20084;-68
2022/12/18 06:32:04;;;;;;;3.33;1.92;;;0.60;99.90;;;;;;5027335;28;20031;-68
2022/12/18 06:34:32;;;;;;;3.65;1.85;;;0.50;99.90;;;;;;5029091;28;20091;-68
2022/12/18 06:36:58;;;;;;;4.60;1.85;;;0.40;99.90;;;;;;5022070;28;20673;-68
2022/12/18 06:39:23;;;;;;;4.13;1.83;;;0.40;99.90;;;;;;5028096;28;20042;-68
2022/12/18 06:41:49;;;;;;;4.50;2.42;;;0.60;99.90;;;;;;5039040;28;20029;-68
2022/12/18 06:44:14;;;;;;;4.80;1.98;;;0.70;99.90;;;;;;5024424;28;20021;-67
2022/12/18 06:46:40;;;;;;;6.15;2.20;;;0.80;99.90;;;;;;5032818;28;20048;-68
2022/12/18 06:49:06;;;;;;;3.53;1.60;;;0.80;99.90;;;;;;5034543;28;20487;-68
2022/12/18 06:51:32;;;;;;;4.50;2.42;;;0.60;99.90;;;;;;5022185;28;20079;-68
2022/12/18 06:53:57;;;;;;;5.57;2.10;;;0.70;99.90;;;;;;5032295;28;20029;-67
2022/12/18 06:56:23;;;;;;;3.78;2.03;;;0.70;99.90;;;;;;5023214;28;20435;-68
2022/12/18 06:58:49;;;;;;;2.97;1.50;;;0.60;99.90;;;;;;5038345;28;20025;-68
2022/12/18 07:01:14;;;;;;;5.22;2.10;;;0.50;99.90;;;;;;5023464;28;20475;-68
2022/12/18 07:03:41;;;;;;;4.65;2.38;;;0.40;99.90;;;;;;5020284;28;20021;-68
2022/12/18 07:06:12;;;;;;;4.50;2.45;;;0.40;99.90;;;;;;5024190;28;20033;-68
2022/12/18 07:08:38;;;;;;;4.53;2.25;;;0.50;99.90;;;;;;5030320;28;20033;-68
2022/12/18 07:11:04;;;;;;;3.85;1.85;;;0.60;99.90;;;;;;5023041;28;20091;-68
2022/12/18 07:13:30;;;;;;;3.78;1.80;;;0.70;99.90;;;;;;5024381;28;20586;-68
2022/12/18 07:16:03;;;;;;;4.63;2.28;;;0.60;99.90;;;;;;5029537;28;20057;-68
2022/12/18 07:18:29;;;;;;;4.68;1.92;;;0.50;99.90;;;;;;5030630;28;20037;-69
2022/12/18 07:20:54;;;;;;;4.70;1.98;;;0.50;99.90;;;;;;5035165;28;20031;-67
2022/12/18 07:23:20;;;;;;;6.32;2.38;;;0.50;99.90;;;;;;5040924;28;20548;-69
2022/12/18 07:25:46;;;;;;;4.50;2.10;;;0.50;99.90;;;;;;5029451;28;20041;-68
2022/12/18 07:28:12;;;;;;;3.92;2.25;;;0.50;99.90;;;;;;5032379;28;20060;-68
2022/12/18 07:30:38;;;;;;;4.35;1.92;;;0.50;99.90;;;;;;5029027;28;20632;-68
2022/12/18 07:33:04;;;;;;;3.63;2.08;;;0.70;99.90;;;;;;5028278;28;20032;-67
2022/12/18 07:35:29;;;;;;;4.65;1.55;;;0.60;99.90;;;;;;5036933;28;20037;-67
2022/12/18 07:37:55;;;;;;;4.03;2.00;;;0.60;99.90;;;;;;5034642;28;20025;-68
2022/12/18 07:40:20;;;;;;;3.90;1.73;;;0.70;99.90;;;;;;5034880;28;20613;-68
2022/12/18 07:42:46;;;;;;;5.90;2.08;;;0.70;99.90;;;;;;5034794;28;20033;-68
2022/12/18 07:45:12;;;;;;;4.18;1.60;;;0.60;99.90;;;;;;5036373;28;20033;-68
2022/12/18 07:47:38;;;;;;;4.97;2.33;;;0.60;99.90;;;;;;5027670;28;20053;-68
2022/12/18 07:50:04;;;;;;;3.22;1.60;;;0.60;99.90;;;;;;5031994;28;20028;-68
2022/12/18 07:52:30;;;;;;;3.92;1.73;;;0.50;99.90;;;;;;5043929;28;20033;-68
2022/12/18 07:54:55;;;;;;;4.13;2.30;;;0.50;99.90;;;;;;5033624;28;20615;-68
2022/12/18 07:57:21;;;;;;;3.45;1.65;;;0.50;99.90;;;;;;5032022;28;20777;-68
2022/12/18 07:59:47;;;;;;;3.63;1.65;;;0.60;99.90;;;;;;5035163;28;20067;-67
2022/12/18 08:02:12;;;;;;;3.85;1.85;;;0.60;99.90;;;;;;5030825;28;20052;-67
2022/12/18 08:04:38;;;;;;;4.22;2.03;;;0.60;99.90;;;;;;5030458;28;20384;-70
2022/12/18 08:07:04;;;;;;;4.32;2.10;;;0.60;99.90;;;;;;5033456;28;20039;-70
2022/12/18 08:09:29;;;;;;;3.30;1.77;;;0.50;99.90;;;;;;5029475;28;20042;-68
2022/12/18 08:11:55;;;;;;;3.90;1.98;;;0.50;99.90;;;;;;5036292;28;20037;-69
2022/12/18 08:14:20;;;;;;;3.88;2.08;;;0.50;99.90;;;;;;5036760;28;20037;-70
2022/12/18 08:16:46;;;;;;;4.10;1.90;;;0.50;99.90;;;;;;5039127;28;20043;-69
2022/12/18 08:19:12;;;;;;;3.83;1.60;;;0.40;99.90;;;;;;5030830;28;20065;-70
2022/12/18 08:21:41;;;;;;;5.40;2.85;;;0.40;99.90;;;;;;5033583;28;20531;-69
2022/12/18 08:24:09;;;;;;;3.42;1.65;;;0.30;99.90;;;;;;5029441;28;20044;-69
2022/12/18 08:26:34;;;;;;;4.97;1.83;;;0.40;99.90;;;;;;5032414;28;21067;-69
2022/12/18 08:29:00;;;;;;;6.78;2.83;;;0.40;99.90;;;;;;5026618;28;20029;-70
2022/12/18 08:31:28;;;;;;;3.85;1.70;;;0.40;99.90;;;;;;5026300;28;20033;-71
2022/12/18 08:33:54;;;;;;;4.55;1.77;;;0.40;99.90;;;;;;5014195;28;20134;-69
2022/12/18 08:36:21;;;;;;;5.25;2.15;;;0.50;99.90;;;;;;5024215;28;20116;-70
2022/12/18 08:38:47;;;;;;;3.80;2.15;;;0.40;99.90;;;;;;5025228;28;20099;-69
2022/12/18 08:41:15;;;;;;;4.65;1.90;;;0.40;99.90;;;;;;5027409;28;20471;-69
2022/12/18 08:46:27;;;;;;;4.95;2.00;;;0.50;99.90;;;;;;5027575;28;20079;-72
2022/12/18 08:48:55;;;;;;;5.70;2.42;;;0.40;99.90;;;;;;5026173;28;20077;-69
2022/12/18 08:51:20;;;;;;;4.38;1.98;;;0.60;99.90;;;;;;5008617;28;20459;-69
2022/12/18 08:53:47;;;;;;;4.53;1.98;;;0.50;99.90;;;;;;5024385;28;20029;-72
2022/12/18 08:56:14;;;;;;;4.07;1.90;;;0.60;99.90;;;;;;5026555;28;20056;-71
2022/12/18 08:58:40;;;;;;;4.28;1.98;;;0.60;99.90;;;;;;5024346;28;20052;-69
2022/12/18 09:01:09;;;;;;;5.28;2.92;;;0.60;99.90;;;;;;5023458;28;20048;-69
2022/12/18 09:03:35;;;;;;;3.97;1.92;;;0.70;99.90;;;;;;5028743;28;20032;-69
2022/12/18 09:06:01;;;;;;;3.63;1.77;;;0.70;99.90;;;;;;5026846;28;20033;-69
2022/12/18 09:08:27;;;;;;;3.97;1.95;;;0.70;99.90;;;;;;5028667;28;20041;-69
2022/12/18 09:10:54;;;;;;;4.93;2.15;;;0.60;99.90;;;;;;5023623;28;20025;-70
2022/12/18 09:13:19;;;;;;;9.73;4.47;;;0.60;99.90;;;;;;5031561;28;20033;-68
2022/12/18 09:15:48;;;;;;;3.30;1.70;;;0.60;99.90;;;;;;5033080;28;20040;-69
2022/12/18 09:18:16;;;;;;;4.40;2.10;;;0.60;99.90;;;;;;5033211;28;20029;-68
2022/12/18 09:20:42;;;;;;;4.13;1.90;;;0.60;99.90;;;;;;5023277;28;20566;-69
2022/12/18 09:23:08;;;;;;;4.03;1.80;;;0.70;99.90;;;;;;5027241;28;20021;-69
2022/12/18 09:25:35;;;;;;;6.07;2.90;;;0.60;99.90;;;;;;5025694;28;20036;-69
2022/12/18 09:28:09;;;;;;;5.45;2.95;;;0.50;99.90;;;;;;5027943;28;20030;-71
2022/12/18 09:30:41;;;;;;;4.35;2.50;;;1.10;99.90;;;;;;5030220;28;20494;-72
2022/12/18 09:33:07;;;;;;;3.42;1.85;;;1.00;99.90;;;;;;5038365;28;20050;-72
2022/12/18 09:35:36;;;;;;;4.90;1.73;;;0.80;99.90;;;;;;5057710;28;20103;-72
2022/12/18 09:38:01;;;;;;;5.47;2.40;;;0.70;99.90;;;;;;5043825;28;20028;-71
2022/12/18 09:40:33;;;;;;;6.65;4.13;;;0.70;99.90;;;;;;5044580;28;20029;-72
2022/12/18 09:43:03;;;;;;;6.13;4.25;;;0.70;99.90;;;;;;5044859;28;20518;-72
2022/12/18 09:45:40;;;;;;;5.57;2.38;;;0.90;99.90;;;;;;5045035;28;20029;-72
2022/12/18 09:48:14;;;;;;;3.88;2.08;;;0.80;99.90;;;;;;5027439;28;20041;-72
2022/12/18 09:50:40;;;;;;;4.95;2.35;;;0.80;99.90;;;;;;5035108;28;20103;-72
2022/12/18 09:53:17;;;;;;;5.80;2.28;;;0.80;99.90;;;;;;5044186;28;20025;-72
2022/12/18 09:55:46;;;;;;;4.72;2.47;;;0.80;99.90;;;;;;5035166;28;20030;-72
2022/12/18 09:58:28;;;;;;;5.97;2.25;;;0.70;99.90;;;;;;5030869;28;20033;-72
2022/12/18 10:00:55;;;;;;;4.22;2.17;;;0.70;99.90;;;;;;5032324;28;26473;-72
2022/12/18 10:03:20;;;;;;;4.45;2.17;;;0.80;99.90;;;;;;5032428;28;20033;-71
2022/12/18 10:05:55;;;;;;;4.72;2.10;;;0.80;99.90;;;;;;5024118;28;20722;-72
2022/12/18 10:08:39;;;;;;;;;;;0.80;99.90;;;;;;5028745;28;20049;-71
2022/12/18 10:11:38;;;;;;;4.30;1.92;;;0.60;99.90;;;;;;5029732;28;20591;-72
2022/12/18 10:14:28;;;;;;;4.15;2.03;;;0.60;99.90;;;;;;5031694;28;20034;-69
2022/12/18 10:17:22;;;;;;;3.95;2.17;;;0.70;99.90;;;;;;5026084;28;20085;-69
2022/12/18 10:19:56;;;;;;;4.35;2.55;;;0.90;99.90;;;;;;5025432;28;20079;-71
2022/12/18 10:22:47;;;;;;;5.40;2.20;;;0.90;99.90;;;;;;5035023;28;20025;-69
2022/12/18 10:25:33;;;;;;;4.43;2.33;;;1.00;99.90;;;;;;5025600;28;20091;-69
2022/12/18 10:28:12;;;;;;;5.03;2.17;;;0.80;99.90;;;;;;5025675;28;20494;-71
2022/12/18 10:30:38;;;;;;;5.90;2.25;;;0.90;99.90;;;;;;5025341;28;20033;-71
2022/12/18 10:33:05;;;;;;;4.53;2.53;;;1.00;99.90;;;;;;5026812;28;20367;-69
2022/12/18 10:35:30;;;;;;;5.80;2.83;;;1.00;99.90;;;;;;5039306;28;20377;-72
2022/12/18 10:38:03;;;;;;;4.47;2.30;;;1.00;99.90;;;;;;5038447;28;20044;-69
2022/12/18 10:40:29;;;;;;;5.28;2.13;;;1.00;99.90;;;;;;5040713;28;20112;-72
2022/12/18 10:43:14;;;;;;;5.63;2.80;;;0.90;99.90;;;;;;5044662;28;20086;-69
2022/12/18 10:45:41;;;;;;;5.75;3.15;;;0.90;99.90;;;;;;5044161;28;20525;-71
2022/12/18 10:48:21;;;;;;;4.18;1.83;;;0.90;99.90;;;;;;5044926;28;20124;-71
2022/12/18 10:50:51;;;;;;;5.03;2.42;;;1.00;99.90;;;;;;5043034;28;20051;-71
2022/12/18 10:53:26;;;;;;;4.82;2.63;;;1.10;99.90;;;;;;5042001;28;20128;-71
2022/12/18 10:55:58;;;;;;;4.65;2.25;;;1.20;99.90;;;;;;5043750;28;20054;-71
2022/12/18 10:58:27;;;;;;;6.35;3.10;;;1.40;99.90;;;;;;5033848;28;20049;-71
2022/12/18 11:01:03;;;;;;;4.32;2.17;;;1.60;99.90;;;;;;5033953;28;20394;-71
2022/12/18 11:03:31;;;;;;;5.22;3.13;;;1.70;99.90;;;;;;5042236;28;20096;-71
2022/12/18 11:06:04;;;;;;;7.28;4.93;;;1.90;99.90;;;;;;5042053;28;20033;-71
2022/12/18 11:08:29;;;;;;;4.38;2.55;;;2.10;99.90;;;;;;5043828;28;20451;-71
2022/12/18 11:10:55;;;;;;;8.35;4.03;;;2.10;99.90;;;;;;5040864;28;20064;-71
2022/12/18 11:13:24;;;;;;;5.07;2.40;;;2.10;99.90;;;;;;5034053;28;20030;-71
2022/12/18 11:15:50;;;;;;;5.22;2.72;;;2.10;99.90;;;;;;5038293;28;20053;-71
2022/12/18 11:18:30;;;;;;;4.65;2.75;;;2.20;99.90;;;;;;5040929;28;20037;-71
2022/12/18 11:21:08;;;;;;;5.47;3.08;;;2.20;99.70;;;;;;5039888;28;20240;-71
2022/12/18 11:23:36;;;;;;;6.22;3.17;;;2.30;99.90;;;;;;5025148;28;20128;-71
2022/12/18 11:26:04;;;;;;;11.13;3.22;;;2.50;99.90;;;;;;5025921;28;20030;-70
2022/12/18 11:28:42;;;;;;;5.90;2.90;;;2.80;99.60;;;;;;5032708;28;20045;-71
2022/12/18 11:31:11;;;;;;;6.65;4.35;;;2.60;99.40;;;;;;5036548;28;20109;-71
2022/12/18 11:33:40;;;;;;;6.07;4.03;;;2.60;99.10;;;;;;5034267;28;20082;-71
2022/12/18 11:36:09;;;;;;;6.28;4.30;;;3.00;99.50;;;;;;5033692;28;20591;-71
2022/12/18 11:38:41;;;;;;;8.90;3.95;;;2.90;98.70;;;;;;5032276;28;20033;-72
2022/12/18 11:42:08;;;;;;;5.97;3.22;;;2.70;98.70;;;;;;5031225;28;20040;-71
2022/12/18 11:44:13;;;;;;;6.03;3.38;;;2.80;99.40;;;;;;5030119;28;20041;-71
2022/12/18 11:46:47;;;;;;;5.88;3.00;;;2.90;99.00;;;;;;5026049;28;20053;-71
2022/12/18 11:49:21;;;;;;;6.07;3.00;;;2.90;98.70;;;;;;5036637;28;20469;-71
2022/12/18 11:52:04;;;;;;;5.88;2.97;;;3.00;98.80;;;;;;5024134;28;20425;-71
2022/12/18 11:54:30;;;;;;;6.18;3.15;;;3.00;98.80;;;;;;5025358;28;20063;-71
2022/12/18 11:57:04;;;;;;;6.13;2.65;;;3.20;98.70;;;;;;5032021;28;20021;-71
2022/12/18 12:00:04;;;;;;;8.70;2.50;;;3.20;98.30;;;;;;5029547;28;20099;-71
2022/12/18 12:03:07;;;;;;;6.32;3.00;;;3.20;98.50;;;;;;5033449;28;20030;-72
2022/12/18 12:05:49;;;;;;;4.97;2.85;;;3.20;98.30;;;;;;5028978;28;20025;-74
2022/12/18 12:08:29;;;;;;;4.88;2.33;;;5.80;99.90;;;;;;5027110;28;20124;-73
2022/12/18 12:11:12;;;;;;;5.50;2.90;;;5.00;97.30;;;;;;5032606;28;20135;-71
2022/12/18 12:13:52;;;;;;;5.15;3.17;;;4.40;96.90;;;;;;5028635;28;20033;-71
2022/12/18 12:16:29;;;;;;;6.70;3.17;;;4.20;97.60;;;;;;5034504;28;20078;-71
2022/12/18 12:19:14;;;;;;;6.80;3.08;;;4.00;97.40;;;;;;5025165;28;20033;-71
2022/12/18 12:21:49;;;;;;;7.97;2.88;;;3.80;97.50;;;;;;5027687;28;20121;-71
2022/12/18 12:24:33;;;;;;;9.43;3.28;;;3.70;98.00;;;;;;5024902;28;20033;-69
2022/12/18 12:27:26;;;;;;;7.68;3.13;;;4.10;98.50;;;;;;5037290;28;20071;-70
2022/12/18 12:30:24;;;;;;;5.85;3.33;;;4.00;97.50;;;;;;5029566;28;20514;-71
2022/12/18 12:33:09;;;;;;;174.55;87.82;;;3.60;97.40;;;;;;5022790;28;20045;-71
2022/12/18 12:36:00;;;;;;;53.70;30.05;;;3.80;98.40;;;;;;5027957;28;20029;-72
2022/12/18 12:38:45;;;;;;;24.80;17.98;;;3.90;97.90;;;;;;5031014;28;20039;-72
2022/12/18 12:44:20;;;;;;;7.82;5.03;;;3.70;97.50;;;;;;4986979;28;20048;-72
2022/12/18 12:46:47;;;;;;;7.30;4.05;;;3.80;97.50;;;;;;5024976;28;20045;-72
2022/12/18 12:49:20;;;;;;;7.47;3.72;;;3.70;97.20;;;;;;5026363;28;20457;-73
2022/12/18 12:52:12;;;;;;;8.05;4.13;;;3.70;97.50;;;;;;5034101;28;20040;-73
2022/12/18 12:54:38;;;;;;;6.38;2.72;;;3.60;97.90;;;;;;5031612;28;20063;-72
2022/12/18 12:57:10;;;;;;;6.80;3.67;;;3.40;97.40;;;;;;5027267;28;20083;-72
2022/12/18 12:59:42;;;;;;;5.22;3.15;;;3.40;97.90;;;;;;5031713;28;20025;-72
2022/12/18 13:02:33;;;;;;;7.25;3.35;;;3.50;97.90;;;;;;5040892;28;20029;-72
2022/12/18 13:05:06;;;;;;;5.78;3.22;;;3.50;97.50;;;;;;5025318;28;20521;-71
2022/12/18 13:07:50;;;;;;;9.43;3.38;;;3.70;97.80;;;;;;5028859;28;20082;-71
2022/12/18 13:10:27;;;;;;;7.83;3.10;;;3.70;97.90;;;;;;5027697;28;20033;-71
2022/12/18 13:13:02;;;;;;;7.53;4.30;;;3.70;97.70;;;;;;5031125;28;20033;-71
2022/12/18 13:15:37;;;;;;;8.23;3.03;;;3.80;97.90;;;;;;5032478;28;20037;-71
2022/12/18 13:18:15;;;;;;;5.75;2.75;;;3.80;98.00;;;;;;5026801;28;20571;-71
2022/12/18 13:21:10;;;;;;;8.43;3.90;;;3.80;97.80;;;;;;5026934;28;20095;-71
2022/12/18 13:23:39;;;;;;;;;;;3.80;98.00;;;;;;5003186;28;20056;-71